Time;durP1;ratioP1;P1;durP2;ratioP2;P2;SDS_P1;SDS_P2;PMS_P1;PMS_P2;Temp;Humidity;BMP_temperature;BMP_pressure;BME280_temperature;BME280_humidity;BME280_pressure;Samples;Min_cycle;Max_cycle;Signal;HPM_P1;HPM_P2
2023/12/28 00:02:04;;;;;;;6.17;5.87;;;10.60;5.20;;;;;;4974146;28;20240;-57
2023/12/28 00:04:30;;;;;;;5.77;5.47;;;10.60;4.50;;;;;;4981707;28;20460;-56
2023/12/28 00:06:56;;;;;;;6.10;5.80;;;10.80;6.60;;;;;;4978400;28;20543;-57
2023/12/28 00:09:21;;;;;;;6.60;6.20;;;10.90;6.90;;;;;;4974029;28;20210;-57
2023/12/28 00:11:47;;;;;;;6.20;5.90;;;11.00;7.00;;;;;;4977921;28;20175;-57
2023/12/28 00:14:13;;;;;;;6.03;5.80;;;11.00;7.00;;;;;;4978072;28;20181;-57
2023/12/28 00:16:38;;;;;;;6.30;5.70;;;11.10;7.10;;;;;;4982931;28;20530;-57
2023/12/28 00:19:04;;;;;;;5.87;5.57;;;11.10;7.00;;;;;;4995137;28;20202;-57
2023/12/28 00:21:30;;;;;;;5.80;5.50;;;11.10;6.60;;;;;;4977921;28;20252;-57
2023/12/28 00:23:56;;;;;;;5.77;5.47;;;11.20;6.90;;;;;;4978014;28;20178;-57
2023/12/28 00:26:21;;;;;;;6.00;5.70;;;11.20;5.80;;;;;;4978129;28;20514;-55
2023/12/28 00:28:48;;;;;;;5.30;5.10;;;11.20;6.20;;;;;;4977903;28;20227;-57
2023/12/28 00:31:13;;;;;;;5.50;5.30;;;11.20;6.00;;;;;;4977334;28;20190;-57
2023/12/28 00:33:39;;;;;;;5.63;5.33;;;11.30;6.20;;;;;;4978009;28;20933;-58
2023/12/28 00:36:05;;;;;;;5.10;4.80;;;11.30;6.00;;;;;;4977990;28;20545;-57
2023/12/28 00:38:30;;;;;;;5.67;5.47;;;11.30;6.10;;;;;;4978062;28;20189;-57
2023/12/28 00:40:57;;;;;;;5.80;5.50;;;11.30;6.30;;;;;;4977408;28;20180;-57
2023/12/28 00:43:23;;;;;;;6.30;6.00;;;11.20;6.20;;;;;;4977932;28;20186;-57
2023/12/28 00:45:48;;;;;;;6.27;5.97;;;11.20;6.60;;;;;;4977677;28;20518;-57
2023/12/28 00:48:14;;;;;;;5.37;5.07;;;11.20;6.30;;;;;;4977667;28;20228;-57
2023/12/28 00:50:39;;;;;;;6.27;5.97;;;11.20;7.00;;;;;;4977265;28;20180;-57
2023/12/28 00:53:05;;;;;;;6.50;6.20;;;11.20;6.50;;;;;;4977437;28;20208;-57
2023/12/28 00:55:31;;;;;;;6.30;6.00;;;11.20;6.60;;;;;;4977591;28;20174;-57
2023/12/28 00:57:56;;;;;;;6.20;5.83;;;11.20;7.10;;;;;;4977372;28;20182;-57
2023/12/28 01:00:22;;;;;;;5.90;5.60;;;11.30;6.70;;;;;;4977086;28;20174;-57
2023/12/28 01:02:49;;;;;;;5.87;5.57;;;11.20;7.10;;;;;;4977319;28;20184;-57
2023/12/28 01:05:14;;;;;;;6.57;6.07;;;11.10;7.10;;;;;;4977091;28;20210;-57
2023/12/28 01:07:40;;;;;;;6.20;5.80;;;11.10;7.00;;;;;;4977188;28;20526;-57
2023/12/28 01:10:06;;;;;;;5.70;5.40;;;11.10;7.00;;;;;;4976650;28;20257;-56
2023/12/28 01:12:32;;;;;;;5.93;5.63;;;11.10;7.00;;;;;;4977190;28;20178;-56
2023/12/28 01:14:57;;;;;;;5.63;5.33;;;11.10;7.00;;;;;;4977366;28;20452;-57
2023/12/28 01:17:23;;;;;;;6.17;5.87;;;11.10;7.00;;;;;;4977128;28;20178;-56
2023/12/28 01:19:48;;;;;;;5.90;5.60;;;11.10;7.00;;;;;;4994053;28;20259;-57
2023/12/28 01:22:14;;;;;;;5.47;5.27;;;11.10;6.70;;;;;;4976738;28;20178;-56
2023/12/28 01:24:40;;;;;;;6.37;5.90;;;11.20;6.10;;;;;;4976867;28;20212;-56
2023/12/28 01:27:06;;;;;;;5.30;5.10;;;11.20;6.20;;;;;;4976807;28;20178;-57
2023/12/28 01:29:32;;;;;;;6.07;5.70;;;11.20;6.80;;;;;;4976481;28;20430;-56
2023/12/28 01:31:58;;;;;;;6.27;5.97;;;11.20;7.10;;;;;;4976512;28;20185;-56
2023/12/28 01:34:24;;;;;;;7.20;6.80;;;11.00;7.00;;;;;;4976789;28;20416;-56
2023/12/28 01:36:49;;;;;;;5.67;5.37;;;10.90;7.40;;;;;;4994157;28;20660;-57
2023/12/28 01:39:18;;;;;;;6.03;5.73;;;10.90;7.80;;;;;;4976326;28;20193;-57
2023/12/28 01:41:44;;;;;;;6.10;5.80;;;10.90;7.30;;;;;;4976611;28;20170;-57
2023/12/28 01:44:09;;;;;;;6.03;5.73;;;10.90;7.60;;;;;;4976409;28;20472;-56
2023/12/28 01:46:35;;;;;;;6.30;6.00;;;10.90;6.90;;;;;;4976642;28;20417;-56
2023/12/28 01:49:01;;;;;;;5.80;5.57;;;10.90;7.10;;;;;;4975897;28;20182;-56
2023/12/28 01:51:27;;;;;;;5.97;5.67;;;11.00;7.00;;;;;;4976294;28;20221;-55
2023/12/28 01:53:53;;;;;;;6.30;5.90;;;11.00;7.00;;;;;;4976278;28;20943;-56
2023/12/28 01:56:20;;;;;;;5.57;5.37;;;11.00;7.00;;;;;;4976385;28;20448;-56
2023/12/28 01:58:48;;;;;;;5.73;5.43;;;11.00;8.30;;;;;;4976298;28;20417;-56
2023/12/28 02:01:13;;;;;;;5.63;5.33;;;10.90;7.50;;;;;;4975762;28;20424;-57
2023/12/28 02:07:01;;;;;;;6.60;6.10;;;10.50;8.30;;;;;;4992900;28;20201;-56
2023/12/28 02:09:27;;;;;;;5.83;5.53;;;10.50;8.30;;;;;;4975772;28;20416;-58
2023/12/28 02:11:54;;;;;;;6.17;5.87;;;10.50;8.00;;;;;;4975883;28;20549;-59
2023/12/28 02:14:20;;;;;;;5.23;5.03;;;10.60;7.50;;;;;;4976070;28;20530;-59
2023/12/28 02:17:10;;;;;;;5.13;4.83;;;10.70;6.80;;;;;;4975899;28;20498;-59
2023/12/28 02:19:50;;;;;;;5.43;5.23;;;10.80;6.80;;;;;;4975530;28;20805;-59
2023/12/28 02:22:16;;;;;;;5.00;4.70;;;10.80;8.20;;;;;;4975735;28;20774;-59
2023/12/28 02:24:56;;;;;;;5.50;5.20;;;10.80;7.70;;;;;;4975713;28;20453;-59
2023/12/28 02:27:22;;;;;;;5.03;4.83;;;10.80;7.70;;;;;;4975793;28;20925;-59
2023/12/28 02:29:48;;;;;;;5.70;5.33;;;10.80;7.90;;;;;;4975439;28;20452;-58
2023/12/28 02:32:15;;;;;;;5.20;4.90;;;10.60;8.00;;;;;;4974884;28;20194;-58
2023/12/28 02:34:44;;;;;;;6.83;6.43;;;10.30;8.60;;;;;;4993125;28;20205;-60
2023/12/28 02:37:12;;;;;;;6.90;6.40;;;10.30;9.00;;;;;;4975414;28;20941;-59
2023/12/28 02:39:39;;;;;;;6.20;5.80;;;10.30;9.50;;;;;;4975270;28;21001;-59
2023/12/28 02:42:05;;;;;;;6.77;6.37;;;10.40;8.50;;;;;;4975461;28;20417;-60
2023/12/28 02:44:30;;;;;;;5.90;5.70;;;10.50;8.70;;;;;;4975512;28;20559;-59
2023/12/28 02:46:56;;;;;;;5.50;5.30;;;10.60;9.10;;;;;;4975415;28;20417;-58
2023/12/28 02:49:21;;;;;;;5.87;5.57;;;10.60;8.90;;;;;;4975114;28;20181;-58
2023/12/28 02:51:47;;;;;;;5.60;5.30;;;10.60;8.80;;;;;;4975367;28;20553;-59
2023/12/28 02:54:13;;;;;;;5.87;5.57;;;10.70;8.10;;;;;;4992753;28;20182;-59
2023/12/28 02:56:40;;;;;;;5.30;5.10;;;10.70;8.40;;;;;;4975310;28;20186;-58
2023/12/28 02:59:06;;;;;;;5.70;5.40;;;10.70;8.50;;;;;;4974859;28;20182;-59
2023/12/28 03:01:32;;;;;;;6.17;5.87;;;10.60;9.10;;;;;;4975353;28;20424;-58
2023/12/28 03:03:57;;;;;;;6.10;5.80;;;10.30;9.10;;;;;;4975356;28;20178;-58
2023/12/28 03:06:23;;;;;;;5.83;5.63;;;10.20;9.30;;;;;;4975124;28;20210;-60
2023/12/28 03:08:49;;;;;;;6.20;5.90;;;10.10;9.80;;;;;;4975228;28;20545;-59
2023/12/28 03:11:14;;;;;;;6.30;6.00;;;10.00;10.40;;;;;;4974775;28;20252;-60
2023/12/28 03:13:40;;;;;;;6.60;6.30;;;10.10;10.70;;;;;;4975285;28;20272;-60
2023/12/28 03:16:06;;;;;;;6.60;6.30;;;10.20;9.70;;;;;;4975495;28;20479;-59
2023/12/28 03:18:32;;;;;;;6.67;6.27;;;10.30;9.40;;;;;;4975402;28;20197;-60
2023/12/28 03:20:57;;;;;;;6.57;6.27;;;10.30;9.30;;;;;;4992297;28;20421;-60
2023/12/28 03:23:23;;;;;;;6.00;5.70;;;10.40;9.10;;;;;;4975498;28;20280;-60
2023/12/28 03:25:48;;;;;;;5.77;5.57;;;10.40;8.90;;;;;;4975189;28;20264;-59
2023/12/28 03:28:15;;;;;;;6.10;5.80;;;10.20;9.50;;;;;;4975336;28;20185;-59
2023/12/28 03:30:40;;;;;;;6.13;5.83;;;10.10;9.90;;;;;;4974714;28;20706;-58
2023/12/28 03:33:06;;;;;;;5.80;5.50;;;10.10;9.70;;;;;;4974914;28;20516;-60
2023/12/28 03:35:32;;;;;;;6.87;6.50;;;10.10;10.20;;;;;;4975035;28;20182;-59
2023/12/28 03:37:57;;;;;;;6.00;5.70;;;10.20;9.90;;;;;;4992497;28;20183;-60
2023/12/28 03:40:23;;;;;;;5.73;5.43;;;10.20;9.90;;;;;;4974711;28;20189;-60
2023/12/28 03:42:48;;;;;;;6.43;6.13;;;10.20;10.00;;;;;;4974877;28;20278;-59
2023/12/28 03:45:14;;;;;;;6.10;5.80;;;10.00;10.10;;;;;;4978338;28;20356;-59
2023/12/28 03:47:40;;;;;;;5.80;5.57;;;9.90;11.00;;;;;;4978868;28;20178;-59
2023/12/28 03:50:06;;;;;;;6.93;6.63;;;9.80;11.80;;;;;;4978159;28;20177;-60
2023/12/28 03:52:32;;;;;;;7.50;7.10;;;9.80;11.90;;;;;;4978505;28;20561;-59
2023/12/28 03:55:10;;;;;;;6.53;6.23;;;9.90;11.50;;;;;;4978676;28;20428;-59
2023/12/28 03:57:35;;;;;;;5.87;5.50;;;10.00;10.40;;;;;;4978063;28;20181;-59
2023/12/28 04:00:01;;;;;;;5.87;5.63;;;10.10;10.00;;;;;;4978309;28;20429;-59
2023/12/28 04:02:31;;;;;;;6.40;6.10;;;10.20;10.00;;;;;;4978533;28;20178;-59
2023/12/28 04:04:58;;;;;;;6.57;6.27;;;10.20;10.40;;;;;;4978282;28;20212;-60
2023/12/28 04:07:24;;;;;;;6.33;6.03;;;10.30;9.90;;;;;;4978269;28;20866;-59
2023/12/28 04:09:49;;;;;;;6.83;6.50;;;10.40;10.10;;;;;;4978049;28;20421;-59
2023/12/28 04:12:15;;;;;;;5.87;5.67;;;10.40;9.60;;;;;;4978261;28;20643;-59
2023/12/28 04:14:41;;;;;;;6.73;6.20;;;10.40;9.30;;;;;;4978326;28;20198;-59
2023/12/28 04:17:06;;;;;;;5.90;5.70;;;10.50;8.70;;;;;;4978295;28;20677;-59
2023/12/28 04:19:32;;;;;;;6.43;6.03;;;10.60;8.40;;;;;;4977749;28;20190;-59
2023/12/28 04:21:57;;;;;;;5.97;5.67;;;10.60;8.10;;;;;;4978089;28;20556;-59
2023/12/28 04:24:23;;;;;;;5.93;5.63;;;10.70;8.20;;;;;;4977943;28;20186;-59
2023/12/28 04:26:48;;;;;;;6.40;6.10;;;10.80;8.30;;;;;;4978208;28;20528;-59
2023/12/28 04:29:14;;;;;;;6.13;5.83;;;10.80;8.50;;;;;;4977653;28;20186;-59
2023/12/28 04:31:45;;;;;;;6.60;6.30;;;10.80;8.80;;;;;;4977761;28;20194;-59
2023/12/28 04:34:11;;;;;;;6.83;6.60;;;10.90;8.70;;;;;;4978006;28;20198;-59
2023/12/28 04:36:42;;;;;;;6.33;5.93;;;10.90;8.70;;;;;;4977745;28;20421;-59
2023/12/28 04:39:07;;;;;;;6.33;6.03;;;11.00;8.20;;;;;;4977407;28;20601;-60
2023/12/28 04:41:33;;;;;;;6.63;6.30;;;11.00;8.20;;;;;;4995168;28;20495;-59
2023/12/28 04:43:59;;;;;;;6.27;5.97;;;11.10;8.10;;;;;;4977842;28;20177;-60
2023/12/28 04:46:24;;;;;;;5.60;5.40;;;11.10;8.20;;;;;;4977590;28;20214;-57
2023/12/28 04:48:50;;;;;;;6.17;5.90;;;11.20;8.20;;;;;;4977622;28;20706;-56
2023/12/28 04:51:15;;;;;;;6.17;5.90;;;11.20;8.40;;;;;;4976942;28;20184;-57
2023/12/28 04:53:41;;;;;;;5.70;5.43;;;11.20;8.20;;;;;;4977572;28;20209;-57
2023/12/28 04:56:07;;;;;;;6.60;6.30;;;11.20;8.10;;;;;;4976686;28;20229;-57
2023/12/28 04:58:33;;;;;;;6.10;5.80;;;11.20;8.40;;;;;;4977214;28;20420;-57
2023/12/28 05:01:00;;;;;;;6.83;6.53;;;11.20;8.30;;;;;;4976837;28;20190;-57
2023/12/28 05:03:26;;;;;;;5.63;5.43;;;11.20;8.00;;;;;;4977613;28;20182;-57
2023/12/28 05:05:52;;;;;;;6.00;5.80;;;11.30;8.40;;;;;;4977646;28;20617;-57
2023/12/28 05:08:17;;;;;;;6.20;5.90;;;11.20;8.80;;;;;;4977681;28;20178;-57
2023/12/28 05:10:43;;;;;;;5.70;5.50;;;11.20;8.50;;;;;;4977084;28;20174;-57
2023/12/28 05:13:09;;;;;;;5.97;5.67;;;11.30;8.60;;;;;;4995054;28;20178;-57
2023/12/28 05:15:34;;;;;;;5.67;5.37;;;11.30;7.80;;;;;;4977511;28;20222;-57
2023/12/28 05:18:00;;;;;;;5.43;5.23;;;11.30;8.10;;;;;;4977499;28;20696;-57
2023/12/28 05:20:25;;;;;;;6.30;6.00;;;11.30;8.40;;;;;;4976810;28;20182;-57
2023/12/28 05:22:51;;;;;;;6.43;6.13;;;11.30;8.30;;;;;;4976724;28;20186;-58
2023/12/28 05:25:17;;;;;;;6.57;6.23;;;11.30;8.40;;;;;;4976623;28;20502;-57
2023/12/28 05:27:42;;;;;;;6.60;6.30;;;11.20;9.20;;;;;;4976771;28;20553;-57
2023/12/28 05:30:08;;;;;;;5.93;5.73;;;11.20;9.00;;;;;;4976331;28;20178;-57
2023/12/28 05:32:35;;;;;;;6.03;5.77;;;11.20;9.00;;;;;;4976453;28;20194;-57
2023/12/28 05:35:01;;;;;;;6.03;5.83;;;11.20;9.40;;;;;;4976508;28;20588;-56
2023/12/28 05:37:26;;;;;;;6.77;6.47;;;11.00;9.20;;;;;;4976781;28;20560;-57
2023/12/28 05:39:52;;;;;;;6.17;5.90;;;10.90;9.70;;;;;;4975156;28;20637;-57
2023/12/28 05:42:18;;;;;;;6.60;6.30;;;10.90;9.60;;;;;;4984607;28;20245;-57
2023/12/28 05:44:44;;;;;;;6.50;6.20;;;11.00;9.60;;;;;;4973592;28;20573;-57
2023/12/28 05:47:09;;;;;;;6.13;5.93;;;11.00;9.90;;;;;;4975671;28;20182;-57
2023/12/28 05:49:37;;;;;;;6.03;5.73;;;11.00;9.70;;;;;;4975030;28;20812;-57
2023/12/28 05:52:03;;;;;;;6.63;6.23;;;11.10;10.10;;;;;;4975034;28;20181;-57
2023/12/28 05:54:28;;;;;;;6.37;6.10;;;11.10;9.70;;;;;;4975066;28;20847;-57
2023/12/28 05:56:54;;;;;;;6.10;5.80;;;11.10;9.80;;;;;;4975512;28;20484;-57
2023/12/28 05:59:21;;;;;;;7.17;6.87;;;11.00;10.20;;;;;;4974201;28;20185;-57
2023/12/28 06:01:47;;;;;;;6.50;6.20;;;11.00;10.30;;;;;;4975692;28;20534;-57
2023/12/28 06:04:13;;;;;;;6.97;6.40;;;11.00;10.10;;;;;;4975105;28;20456;-57
2023/12/28 06:06:39;;;;;;;6.53;6.13;;;11.00;10.50;;;;;;4974070;28;20481;-57
2023/12/28 06:09:04;;;;;;;6.30;6.00;;;11.00;10.60;;;;;;4974368;28;20185;-57
2023/12/28 06:11:30;;;;;;;6.10;5.80;;;11.00;10.60;;;;;;4974838;28;20476;-57
2023/12/28 06:13:56;;;;;;;6.67;6.37;;;11.10;10.50;;;;;;4974515;28;20211;-57
2023/12/28 06:16:21;;;;;;;5.90;5.50;;;11.10;10.70;;;;;;4974993;28;20228;-57
2023/12/28 06:18:47;;;;;;;6.23;5.93;;;11.10;11.30;;;;;;4975068;28;20566;-57
2023/12/28 06:21:13;;;;;;;6.20;5.90;;;11.20;10.70;;;;;;4973059;28;20194;-57
2023/12/28 06:23:39;;;;;;;7.20;6.80;;;11.10;10.50;;;;;;4971883;28;20194;-57
2023/12/28 06:26:07;;;;;;;6.20;5.90;;;11.10;11.00;;;;;;4974667;28;20209;-57
2023/12/28 06:28:33;;;;;;;6.10;5.70;;;11.00;11.30;;;;;;4973629;28;20521;-60
2023/12/28 06:31:03;;;;;;;6.70;6.40;;;10.70;11.70;;;;;;4974418;28;21001;-59
2023/12/28 06:33:28;;;;;;;5.97;5.67;;;10.60;12.40;;;;;;4974543;28;20348;-61
2023/12/28 06:35:54;;;;;;;7.10;6.77;;;10.50;12.80;;;;;;4973878;28;20952;-60
2023/12/28 06:38:20;;;;;;;7.30;6.90;;;10.30;12.90;;;;;;4974749;28;20209;-59
2023/12/28 06:40:46;;;;;;;8.00;7.50;;;10.20;13.40;;;;;;4974329;28;20178;-60
2023/12/28 06:43:11;;;;;;;7.53;7.17;;;10.10;13.70;;;;;;4973652;28;20213;-60
2023/12/28 06:45:38;;;;;;;6.00;5.70;;;10.00;14.20;;;;;;4974663;28;20216;-60
2023/12/28 06:48:04;;;;;;;6.30;6.00;;;10.00;14.40;;;;;;4970683;28;20205;-60
2023/12/28 06:50:30;;;;;;;6.50;6.10;;;10.20;14.00;;;;;;4970497;28;20938;-60
2023/12/28 06:52:57;;;;;;;6.50;6.10;;;10.40;13.50;;;;;;4973410;28;20468;-60
2023/12/28 06:55:22;;;;;;;6.00;5.80;;;10.60;13.10;;;;;;4973145;28;20186;-60
2023/12/28 06:57:48;;;;;;;5.73;5.43;;;10.80;12.70;;;;;;4974169;28;20424;-60
2023/12/28 07:00:14;;;;;;;6.20;5.90;;;10.90;12.50;;;;;;4974393;28;20193;-60
2023/12/28 07:02:39;;;;;;;6.20;5.90;;;11.10;12.40;;;;;;4973881;28;20553;-60
2023/12/28 07:05:05;;;;;;;6.23;6.03;;;11.20;11.70;;;;;;4973866;28;20457;-60
2023/12/28 07:07:31;;;;;;;5.93;5.63;;;11.30;12.00;;;;;;4974232;28;20670;-60
2023/12/28 07:09:57;;;;;;;6.77;6.47;;;11.40;12.00;;;;;;4973539;28;20437;-60
2023/12/28 07:12:23;;;;;;;5.93;5.73;;;11.40;12.00;;;;;;4973279;28;20193;-60
2023/12/28 07:14:49;;;;;;;7.00;6.60;;;11.50;11.70;;;;;;4974647;28;20429;-60
2023/12/28 07:17:17;;;;;;;6.20;6.00;;;11.50;11.60;;;;;;4973995;28;20917;-60
2023/12/28 07:19:43;;;;;;;6.77;6.47;;;11.50;11.40;;;;;;4972982;28;20188;-61
2023/12/28 07:22:08;;;;;;;6.23;5.93;;;11.60;11.50;;;;;;4973363;28;20471;-60
2023/12/28 07:24:34;;;;;;;6.40;6.20;;;11.70;11.30;;;;;;4973708;28;20910;-61
2023/12/28 07:27:00;;;;;;;7.10;6.80;;;11.70;11.30;;;;;;4973483;28;20193;-60
2023/12/28 07:29:25;;;;;;;7.30;6.90;;;11.80;11.90;;;;;;4973487;28;20690;-60
2023/12/28 07:31:51;;;;;;;7.77;6.80;;;11.80;12.20;;;;;;4973626;28;20207;-60
2023/12/28 07:34:17;;;;;;;6.23;5.83;;;11.60;12.30;;;;;;4973778;28;20181;-60
2023/12/28 07:36:43;;;;;;;6.07;5.73;;;11.50;12.70;;;;;;4973299;28;20190;-60
2023/12/28 07:39:10;;;;;;;6.50;6.20;;;11.40;13.40;;;;;;4972588;28;20439;-60
2023/12/28 07:41:36;;;;;;;6.57;5.97;;;11.40;13.50;;;;;;4972784;28;20436;-60
2023/12/28 07:44:05;;;;;;;6.00;5.70;;;11.30;13.90;;;;;;4983030;28;20424;-56
2023/12/28 07:46:34;;;;;;;7.33;6.93;;;11.10;14.30;;;;;;4991043;28;20215;-56
2023/12/28 07:48:59;;;;;;;6.70;6.40;;;11.10;14.50;;;;;;4981444;28;20453;-58
2023/12/28 07:51:25;;;;;;;6.97;6.57;;;11.20;15.00;;;;;;4972349;28;20421;-58
2023/12/28 07:53:50;;;;;;;7.37;6.97;;;11.30;14.30;;;;;;4991393;28;20182;-57
2023/12/28 07:56:16;;;;;;;6.60;6.20;;;11.40;14.50;;;;;;4975352;28;20185;-57
2023/12/28 07:58:42;;;;;;;7.23;6.83;;;11.60;14.00;;;;;;4974301;28;20613;-56
2023/12/28 08:01:11;;;;;;;7.27;6.77;;;11.60;13.70;;;;;;4970076;28;20191;-58
2023/12/28 08:03:36;;;;;;;6.30;5.90;;;11.80;13.90;;;;;;4966690;28;20281;-57
2023/12/28 08:06:03;;;;;;;7.70;7.20;;;11.80;13.70;;;;;;4973053;28;20570;-57
2023/12/28 08:08:28;;;;;;;7.00;6.53;;;11.90;13.70;;;;;;4983108;28;20596;-56
2023/12/28 08:10:54;;;;;;;7.93;7.53;;;11.90;14.10;;;;;;4980003;28;20499;-57
2023/12/28 08:13:20;;;;;;;8.20;7.70;;;11.90;13.80;;;;;;4998361;28;20178;-57
2023/12/28 08:15:46;;;;;;;8.00;7.60;;;11.80;14.30;;;;;;4973454;28;20181;-57
2023/12/28 08:18:12;;;;;;;8.27;7.63;;;11.90;14.30;;;;;;4982743;28;20177;-57
2023/12/28 08:20:38;;;;;;;7.70;7.30;;;11.80;13.90;;;;;;4975301;28;20429;-57
2023/12/28 08:23:03;;;;;;;6.93;6.53;;;11.90;14.10;;;;;;4973169;28;20429;-57
2023/12/28 08:25:35;;;;;;;7.73;7.13;;;11.80;14.90;;;;;;4972606;28;20225;-57
2023/12/28 08:28:01;;;;;;;8.07;6.97;;;11.80;15.30;;;;;;4974290;28;20178;-57
2023/12/28 08:30:27;;;;;;;7.10;6.70;;;11.70;14.90;;;;;;4984572;28;20952;-57
2023/12/28 08:32:53;;;;;;;7.40;6.90;;;11.70;15.10;;;;;;4976778;28;20685;-57
2023/12/28 08:35:19;;;;;;;7.47;7.07;;;11.70;15.30;;;;;;4977792;28;20421;-57
2023/12/28 08:37:44;;;;;;;7.03;6.73;;;11.80;15.60;;;;;;4999473;28;20265;-57
2023/12/28 08:40:10;;;;;;;6.53;6.23;;;11.80;15.00;;;;;;4976462;28;20617;-57
2023/12/28 08:42:36;;;;;;;6.47;6.17;;;11.90;15.20;;;;;;5004105;28;20677;-57
2023/12/28 08:45:02;;;;;;;6.53;6.13;;;12.00;15.40;;;;;;4976583;28;20469;-57
2023/12/28 08:47:27;;;;;;;6.40;6.00;;;12.00;15.70;;;;;;4976305;28;20186;-57
2023/12/28 08:49:53;;;;;;;7.53;7.13;;;12.00;16.20;;;;;;4959467;28;20186;-57
2023/12/28 08:52:19;;;;;;;6.97;6.67;;;11.90;16.20;;;;;;4976344;28;20214;-58
2023/12/28 08:54:44;;;;;;;6.67;6.30;;;11.90;16.20;;;;;;4976119;28;20212;-58
2023/12/28 08:57:10;;;;;;;7.00;6.53;;;11.90;17.30;;;;;;4970967;28;20191;-57
2023/12/28 08:59:36;;;;;;;8.00;7.40;;;11.90;16.60;;;;;;4976569;28;20186;-57
2023/12/28 09:02:02;;;;;;;7.90;7.40;;;12.00;16.90;;;;;;4988153;28;20557;-57
2023/12/28 09:04:28;;;;;;;7.77;7.27;;;12.10;16.70;;;;;;4970595;28;20429;-57
2023/12/28 09:06:53;;;;;;;7.87;7.30;;;12.10;16.30;;;;;;4975757;28;20421;-58
2023/12/28 09:09:19;;;;;;;7.20;6.70;;;12.10;16.30;;;;;;4975449;28;20631;-57
2023/12/28 09:11:45;;;;;;;7.50;7.00;;;12.20;16.40;;;;;;4982372;28;20344;-57
2023/12/28 09:14:10;;;;;;;6.97;6.57;;;12.20;16.40;;;;;;4975614;28;20642;-57
2023/12/28 09:16:36;;;;;;;8.10;7.60;;;12.20;16.40;;;;;;4976397;28;20182;-57
2023/12/28 09:19:02;;;;;;;7.93;7.40;;;12.20;16.40;;;;;;4978954;28;20566;-58
2023/12/28 09:21:27;;;;;;;7.07;6.67;;;12.20;16.40;;;;;;4975119;28;20658;-57
2023/12/28 09:23:53;;;;;;;9.23;8.43;;;12.20;16.40;;;;;;4975563;28;20650;-57
2023/12/28 09:26:19;;;;;;;7.57;7.07;;;12.20;16.90;;;;;;4975062;28;20261;-57
2023/12/28 09:28:44;;;;;;;8.00;7.37;;;12.20;17.40;;;;;;4982097;28;20205;-58
2023/12/28 09:31:11;;;;;;;7.90;7.50;;;12.20;17.60;;;;;;4974818;28;20264;-57
2023/12/28 09:33:37;;;;;;;8.90;8.17;;;12.20;17.90;;;;;;4974832;28;20181;-57
2023/12/28 09:36:06;;;;;;;8.40;7.80;;;12.20;18.40;;;;;;4987308;28;20429;-58
2023/12/28 09:38:32;;;;;;;9.10;8.37;;;12.20;19.30;;;;;;4975355;28;20189;-58
2023/12/28 09:41:04;;;;;;;9.23;8.63;;;12.20;19.50;;;;;;4974463;28;20926;-60
2023/12/28 09:43:36;;;;;;;9.40;8.80;;;12.10;20.00;;;;;;4971732;28;20649;-60
2023/12/28 09:46:07;;;;;;;9.13;8.53;;;12.10;19.70;;;;;;4977891;28;20535;-60
2023/12/28 09:48:33;;;;;;;9.47;8.60;;;12.20;19.60;;;;;;4975996;28;20821;-60
2023/12/28 09:50:59;;;;;;;9.10;8.40;;;12.20;20.00;;;;;;4981346;28;20420;-61
2023/12/28 09:53:25;;;;;;;10.33;8.80;;;12.20;20.00;;;;;;4988644;28;20216;-60
2023/12/28 09:55:52;;;;;;;8.50;7.80;;;12.20;19.30;;;;;;4975017;28;20697;-60
2023/12/28 09:58:19;;;;;;;8.07;7.47;;;12.10;20.20;;;;;;4989555;28;20511;-60
2023/12/28 10:00:46;;;;;;;9.13;8.43;;;12.10;19.40;;;;;;4987809;28;20435;-60
2023/12/28 10:03:16;;;;;;;7.80;7.30;;;12.20;19.30;;;;;;4982344;28;20781;-60
2023/12/28 10:05:42;;;;;;;7.40;7.00;;;12.20;19.30;;;;;;4981383;28;21000;-60
2023/12/28 10:08:08;;;;;;;9.10;8.50;;;12.30;19.20;;;;;;4982941;28;20460;-61
2023/12/28 10:10:34;;;;;;;10.10;9.33;;;12.20;18.10;;;;;;4974287;28;20864;-61
2023/12/28 10:13:00;;;;;;;8.43;7.83;;;12.20;18.60;;;;;;4965285;28;20469;-61
2023/12/28 10:15:26;;;;;;;7.37;6.97;;;12.20;18.30;;;;;;4993162;28;20428;-60
2023/12/28 10:17:54;;;;;;;6.60;6.20;;;12.10;18.40;;;;;;4972928;28;20437;-61
2023/12/28 10:20:20;;;;;;;6.63;6.00;;;12.00;18.70;;;;;;4980879;28;20186;-61
2023/12/28 10:22:47;;;;;;;5.70;5.40;;;11.90;18.70;;;;;;4988265;28;20425;-60
2023/12/28 10:25:13;;;;;;;6.50;6.00;;;12.00;18.50;;;;;;4986691;28;20472;-60
2023/12/28 10:27:42;;;;;;;6.20;5.70;;;12.00;18.60;;;;;;4985587;28;20424;-61
2023/12/28 10:30:11;;;;;;;5.83;5.50;;;12.00;18.60;;;;;;4979707;28;20417;-61
2023/12/28 10:32:40;;;;;;;5.20;4.90;;;12.10;18.60;;;;;;4973775;28;20429;-61
2023/12/28 10:35:07;;;;;;;5.80;5.50;;;12.20;18.70;;;;;;4974481;28;20546;-61
2023/12/28 10:37:35;;;;;;;5.20;5.00;;;12.30;18.40;;;;;;4977059;28;20460;-61
2023/12/28 10:40:06;;;;;;;5.80;5.47;;;12.20;18.50;;;;;;4981780;28;20425;-61
2023/12/28 10:42:37;;;;;;;5.10;4.90;;;12.20;18.50;;;;;;4976418;28;20421;-61
2023/12/28 10:45:07;;;;;;;5.40;5.10;;;12.30;18.50;;;;;;4981112;28;20886;-60
2023/12/28 10:47:34;;;;;;;5.60;5.30;;;12.20;18.60;;;;;;4974102;28;20487;-60
2023/12/28 10:50:04;;;;;;;6.03;5.63;;;12.20;18.50;;;;;;4974062;28;20424;-60
2023/12/28 10:52:31;;;;;;;8.40;5.67;;;12.20;18.60;;;;;;4982805;28;20429;-60
2023/12/28 10:55:18;;;;;;;5.80;5.50;;;12.30;18.90;;;;;;4982391;28;20436;-59
2023/12/28 10:58:11;;;;;;;5.77;5.27;;;12.40;18.60;;;;;;4983723;28;20508;-59
2023/12/28 11:00:47;;;;;;;5.63;5.43;;;12.50;18.30;;;;;;4965431;28;20936;-59
2023/12/28 11:03:18;;;;;;;5.90;5.60;;;12.60;18.30;;;;;;4976312;28;20421;-59
2023/12/28 11:05:45;;;;;;;6.60;6.10;;;12.70;18.30;;;;;;4966447;28;20460;-59
2023/12/28 11:08:12;;;;;;;5.67;5.30;;;12.70;18.30;;;;;;4976304;28;20468;-60
2023/12/28 11:10:39;;;;;;;5.87;5.53;;;12.60;18.70;;;;;;4972436;28;20425;-60
2023/12/28 11:13:05;;;;;;;5.60;5.40;;;12.60;19.20;;;;;;4978029;28;20466;-59
2023/12/28 11:15:31;;;;;;;5.03;4.83;;;12.60;19.50;;;;;;4975326;28;20421;-60
2023/12/28 11:17:57;;;;;;;6.43;6.03;;;12.70;19.50;;;;;;4973880;28;20471;-59
2023/12/28 11:20:23;;;;;;;5.77;5.57;;;12.70;19.50;;;;;;4982386;28;20447;-59
2023/12/28 11:22:49;;;;;;;5.40;5.10;;;12.60;20.00;;;;;;4983787;28;20231;-59
2023/12/28 11:25:18;;;;;;;5.07;4.87;;;12.60;20.50;;;;;;4978911;28;20473;-59
2023/12/28 11:27:47;;;;;;;6.10;5.60;;;12.60;20.60;;;;;;4978133;28;20444;-59
2023/12/28 11:30:13;;;;;;;5.50;5.30;;;12.60;20.50;;;;;;4977877;28;20429;-59
2023/12/28 11:32:43;;;;;;;5.40;5.20;;;12.60;20.80;;;;;;4973433;28;20448;-59
2023/12/28 11:35:14;;;;;;;6.23;5.93;;;12.70;20.80;;;;;;4973983;28;20425;-59
2023/12/28 11:37:42;;;;;;;5.43;5.23;;;12.80;20.60;;;;;;4980019;28;20439;-59
2023/12/28 11:40:17;;;;;;;4.90;4.70;;;12.80;21.20;;;;;;4981536;28;20476;-60
2023/12/28 11:42:53;;;;;;;6.50;6.20;;;12.80;21.40;;;;;;4965757;28;20420;-67
2023/12/28 11:45:21;;;;;;;5.50;5.30;;;12.90;21.20;;;;;;4982088;28;21031;-60
2023/12/28 11:47:47;;;;;;;5.77;5.57;;;12.90;21.10;;;;;;4973378;28;20426;-59
2023/12/28 11:50:13;;;;;;;5.50;5.30;;;12.90;20.90;;;;;;4983429;28;20479;-59
2023/12/28 11:52:39;;;;;;;5.43;5.07;;;13.10;20.90;;;;;;4980701;28;20529;-61
2023/12/28 11:55:05;;;;;;;6.10;5.80;;;13.10;20.90;;;;;;4973656;28;20425;-60
2023/12/28 11:57:31;;;;;;;5.10;4.90;;;13.20;20.70;;;;;;4981790;28;20217;-60
2023/12/28 11:59:59;;;;;;;5.93;5.60;;;13.00;21.00;;;;;;4979033;28;20776;-59
2023/12/28 12:02:25;;;;;;;5.93;5.63;;;13.10;21.00;;;;;;4979024;28;20698;-60
2023/12/28 12:04:51;;;;;;;5.80;5.50;;;13.10;20.70;;;;;;4975154;28;20475;-59
2023/12/28 12:07:17;;;;;;;5.83;5.53;;;13.00;21.30;;;;;;4978042;28;20413;-59
2023/12/28 12:09:43;;;;;;;5.97;5.63;;;12.90;21.10;;;;;;4980004;28;20473;-60
2023/12/28 12:12:09;;;;;;;5.30;5.03;;;13.00;21.30;;;;;;4974768;28;20182;-60
2023/12/28 12:14:35;;;;;;;5.57;5.37;;;13.00;21.10;;;;;;4976499;28;20440;-60
2023/12/28 12:17:01;;;;;;;5.47;5.17;;;13.10;21.30;;;;;;4976445;28;20189;-60
2023/12/28 12:19:27;;;;;;;5.20;5.00;;;13.10;21.20;;;;;;4976948;28;20440;-60
2023/12/28 12:21:53;;;;;;;5.43;5.23;;;13.20;21.30;;;;;;4977423;28;20762;-60
2023/12/28 12:24:20;;;;;;;4.87;4.67;;;13.20;21.10;;;;;;4976747;28;20424;-60
2023/12/28 12:26:46;;;;;;;5.50;5.27;;;13.20;21.00;;;;;;4976557;28;20555;-58
2023/12/28 12:29:12;;;;;;;5.77;5.47;;;13.20;21.30;;;;;;4986301;28;20420;-60
2023/12/28 12:31:41;;;;;;;5.57;5.27;;;13.30;21.60;;;;;;4989062;28;20452;-59
2023/12/28 12:34:10;;;;;;;4.87;4.67;;;13.30;22.00;;;;;;4977335;28;20791;-60
2023/12/28 12:36:37;;;;;;;5.60;5.30;;;13.30;22.20;;;;;;4977225;28;20449;-59
2023/12/28 12:39:05;;;;;;;5.37;5.17;;;13.30;22.30;;;;;;4973283;28;20421;-60
2023/12/28 12:41:32;;;;;;;6.13;5.73;;;13.30;22.10;;;;;;4968528;28;20430;-58
2023/12/28 12:43:59;;;;;;;5.60;5.40;;;13.30;21.90;;;;;;4973814;28;20425;-58
2023/12/28 12:46:25;;;;;;;5.97;5.53;;;13.30;21.90;;;;;;4977937;28;20839;-59
2023/12/28 12:48:58;;;;;;;6.00;5.70;;;13.30;21.50;;;;;;4975414;28;20433;-58
2023/12/28 12:51:25;;;;;;;6.13;5.87;;;13.30;21.80;;;;;;4975440;28;20276;-60